createdAt,value
2023-02-08T00:02:01.152Z,103602.34
2023-02-08T00:04:27.572Z,103599.63
2023-02-08T00:06:53.994Z,103603.06
2023-02-08T00:09:20.417Z,103600.50
2023-02-08T00:11:46.870Z,103598.75
2023-02-08T00:14:13.323Z,103594.44
2023-02-08T00:16:39.887Z,103595.22
2023-02-08T00:19:06.415Z,103599.56
2023-02-08T00:21:32.892Z,103597.78
2023-02-08T00:23:59.304Z,103602.19
2023-02-08T00:26:25.851Z,103600.38
2023-02-08T00:28:52.345Z,103598.59
2023-02-08T00:31:18.878Z,103598.66
2023-02-08T00:33:45.411Z,103606.50
2023-02-08T00:36:12.567Z,103606.50
2023-02-08T00:38:39.081Z,103609.16
2023-02-08T00:41:05.950Z,103600.44
2023-02-08T00:43:32.420Z,103604.81
2023-02-08T00:46:00.241Z,103599.50
2023-02-08T00:48:27.878Z,103597.63
2023-02-08T00:51:08.814Z,103601.19
2023-02-08T00:53:37.969Z,103597.75
2023-02-08T00:56:04.888Z,103603.84
2023-02-08T00:58:31.300Z,103609.97
2023-02-08T01:00:57.832Z,103604.72
2023-02-08T01:03:24.815Z,103605.56
2023-02-08T01:05:51.598Z,103600.34
2023-02-08T01:08:20.425Z,103609.91
2023-02-08T01:10:47.423Z,103600.31
2023-02-08T01:13:13.870Z,103605.59
2023-02-08T01:15:40.415Z,103594.13
2023-02-08T01:18:06.850Z,103599.41
2023-02-08T01:20:36.129Z,103604.66
2023-02-08T01:23:03.632Z,103599.38
2023-02-08T01:25:30.324Z,103607.97
2023-02-08T01:27:57.359Z,103607.94
2023-02-08T01:30:24.146Z,103604.44
2023-02-08T01:32:50.629Z,103601.06
2023-02-08T01:35:17.179Z,103597.59
2023-02-08T01:37:43.606Z,103608.03
2023-02-08T01:40:10.744Z,103606.13
2023-02-08T01:42:37.315Z,103596.59
2023-02-08T01:45:22.971Z,103593.13
2023-02-08T01:47:55.067Z,103589.63
2023-02-08T01:50:27.516Z,103590.47
2023-02-08T01:52:54.136Z,103589.56
2023-02-08T01:55:34.223Z,103596.47
2023-02-08T01:58:06.391Z,103596.53
2023-02-08T02:00:33.116Z,103602.56
2023-02-08T02:03:01.829Z,103597.94
2023-02-08T02:09:38.684Z,103603.03
2023-02-08T02:12:07.669Z,103595.38
2023-02-08T02:14:35.367Z,103584.81
2023-02-08T02:17:01.874Z,103589.16
2023-02-08T02:19:31.154Z,103597.75
2023-02-08T02:22:36.052Z,103600.38
2023-02-08T02:25:30.339Z,103605.31
2023-02-08T02:28:33.259Z,103607.91
2023-02-08T02:31:15.362Z,103606.13
2023-02-08T02:33:50.960Z,103608.81
2023-02-08T02:36:33.193Z,103608.59
2023-02-08T02:39:05.574Z,103609.66
2023-02-08T02:42:06.356Z,103609.81
2023-02-08T02:44:57.276Z,103605.50
2023-02-08T02:47:41.107Z,103603.81
2023-02-08T02:50:21.190Z,103610.06
2023-02-08T02:52:56.786Z,103606.47
2023-02-08T02:55:25.896Z,103613.44
2023-02-08T02:57:54.649Z,103612.06
2023-02-08T03:00:25.734Z,103614.56
2023-02-08T03:02:53.273Z,103614.13
2023-02-08T03:05:19.771Z,103610.94
2023-02-08T03:08:03.814Z,103613.56
2023-02-08T03:11:02.266Z,103610.06
2023-02-08T03:13:38.576Z,103612.88
2023-02-08T03:16:28.486Z,103606.94
2023-02-08T03:19:03.615Z,103610.47
2023-02-08T03:21:56.818Z,103614.84
2023-02-08T03:24:40.289Z,103609.69
2023-02-08T03:27:16.497Z,103602.72
2023-02-08T03:29:53.642Z,103603.44
2023-02-08T03:32:41.923Z,103603.41
2023-02-08T03:35:19.875Z,103606.13
2023-02-08T03:40:27.347Z,103606.34
2023-02-08T03:42:58.583Z,103604.53
2023-02-08T03:45:49.746Z,103602.91
2023-02-08T03:48:20.271Z,103600.06
2023-02-08T03:50:51.575Z,103608.72
2023-02-08T03:53:22.056Z,103600.94
2023-02-08T03:55:53.193Z,103601.56
2023-02-08T03:58:28.321Z,103604.19
2023-02-08T04:01:11.540Z,103600.59
2023-02-08T04:03:39.067Z,103606.59
2023-02-08T04:06:05.849Z,103609.31
2023-02-08T04:08:32.312Z,103604.13
2023-02-08T04:10:58.947Z,103612.00
2023-02-08T04:13:25.412Z,103606.84
2023-02-08T04:15:51.928Z,103605.97
2023-02-08T04:18:18.393Z,103596.19
2023-02-08T04:20:44.880Z,103603.28
2023-02-08T04:23:11.352Z,103609.16
2023-02-08T04:25:37.847Z,103604.81
2023-02-08T04:28:04.567Z,103607.53
2023-02-08T04:30:31.088Z,103607.41
2023-02-08T04:32:59.973Z,103611.72
2023-02-08T04:35:26.523Z,103610.91
2023-02-08T04:37:52.951Z,103602.97
2023-02-08T04:40:19.568Z,103611.66
2023-02-08T04:45:21.274Z,103599.50
2023-02-08T04:47:47.770Z,103601.22
2023-02-08T04:50:14.726Z,103600.41
2023-02-08T04:52:41.301Z,103604.00
2023-02-08T04:55:08.268Z,103600.47
2023-02-08T04:57:34.772Z,103616.78
2023-02-08T05:00:01.312Z,103604.41
2023-02-08T05:02:27.828Z,103601.72
2023-02-08T07:28:45.533Z,103654.16
2023-02-08T07:31:14.680Z,103645.31
2023-02-08T07:33:41.987Z,103651.69
2023-02-08T07:36:09.042Z,103648.06
2023-02-08T07:38:35.497Z,103645.91
2023-02-08T07:41:08.577Z,103649.38
2023-02-08T07:43:36.136Z,103662.50
2023-02-08T07:46:07.969Z,103662.50
2023-02-08T07:48:35.250Z,103668.91
2023-02-08T07:51:02.549Z,103666.53
2023-02-08T07:53:29.715Z,103663.19
2023-02-08T07:55:56.188Z,103675.53
2023-02-08T07:58:23.487Z,103667.78
2023-02-08T08:00:49.987Z,103675.38
2023-02-08T08:03:16.682Z,103679.72
2023-02-08T09:52:39.341Z,103675.50
2023-02-08T09:55:34.902Z,103661.63
2023-02-08T09:58:05.368Z,103665.06
2023-02-08T10:17:02.831Z,103632.22
2023-02-08T10:19:59.553Z,103632.91
2023-02-08T10:22:34.768Z,103626.50
2023-02-08T10:25:16.226Z,103625.19
2023-02-08T10:28:21.351Z,103623.09
2023-02-08T10:30:53.615Z,103612.91
2023-02-08T10:33:41.826Z,103619.31
2023-02-08T10:36:21.474Z,103609.94
2023-02-08T10:38:53.036Z,103609.19
2023-02-08T10:41:22.092Z,103604.75
2023-02-08T10:44:20.780Z,103601.72
2023-02-08T10:46:50.167Z,103600.44
2023-02-08T10:49:25.411Z,103591.19
2023-02-08T10:51:53.609Z,103588.41
2023-02-08T10:54:20.073Z,103593.19
2023-02-08T10:56:52.761Z,103591.28
2023-02-08T10:59:27.453Z,103589.31
2023-02-08T11:01:54.689Z,103586.06
2023-02-08T11:04:21.467Z,103587.47
2023-02-08T11:06:50.151Z,103582.03
2023-02-08T11:09:29.338Z,103570.63
2023-02-08T11:11:58.585Z,103566.47
2023-02-08T11:14:46.804Z,103575.56
2023-02-08T11:17:30.673Z,103570.22
2023-02-08T11:19:59.002Z,103576.25
2023-02-08T11:22:30.958Z,103566.78
2023-02-08T11:25:03.979Z,103566.72
2023-02-08T11:27:34.234Z,103570.53
2023-02-08T11:30:13.080Z,103574.78
2023-02-08T11:32:41.522Z,103564.81
2023-02-08T11:35:23.075Z,103557.75
2023-02-08T11:37:51.731Z,103558.63
2023-02-08T11:40:31.592Z,103562.41
2023-02-08T11:42:58.804Z,103552.72
2023-02-08T11:45:29.850Z,103564.19
2023-02-08T15:17:29.495Z,103436.50
2023-02-08T15:19:56.270Z,103416.25
2023-02-08T15:22:25.860Z,103411.91
2023-02-08T15:24:54.878Z,103408.41
2023-02-08T15:46:25.078Z,103381.41
2023-02-08T15:56:55.257Z,103378.03
2023-02-08T15:59:28.062Z,103373.69
2023-02-08T16:01:57.628Z,103369.28
2023-02-08T16:04:25.755Z,103379.78
2023-02-08T16:06:57.528Z,103378.03
2023-02-08T16:12:06.198Z,103367.53
2023-02-08T16:14:50.594Z,103377.19
2023-02-08T16:17:44.374Z,103385.94
2023-02-08T16:20:33.796Z,103374.63
2023-02-08T16:23:03.955Z,103377.25
2023-02-08T16:25:37.135Z,103385.16
2023-02-08T16:28:05.896Z,103371.16
2023-02-08T16:30:32.894Z,103372.97
2023-02-08T16:33:06.848Z,103375.53
2023-02-08T16:35:33.592Z,103383.47
2023-02-08T16:40:51.344Z,103377.34
2023-02-08T16:43:22.794Z,103377.34
2023-02-08T16:46:28.136Z,103372.97
2023-02-08T16:48:56.405Z,103380.84
2023-02-08T16:51:27.364Z,103372.97
2023-02-08T16:53:56.610Z,103372.09
2023-02-08T16:56:24.076Z,103378.22
2023-02-08T16:58:50.617Z,103379.13
2023-02-08T17:01:17.222Z,103375.59
2023-02-08T17:03:43.857Z,103373.88
2023-02-08T17:06:33.534Z,103367.75
2023-02-08T17:09:01.578Z,103363.38
2023-02-08T17:11:28.964Z,103359.88
2023-02-08T17:13:56.126Z,103366.88
2023-02-08T17:16:25.074Z,103366.91
2023-02-08T17:18:52.025Z,103359.88
2023-02-08T17:21:18.622Z,103362.53
2023-02-08T17:23:45.917Z,103359.91
2023-02-08T17:26:27.723Z,103358.16
2023-02-08T17:28:56.375Z,103363.38
2023-02-08T17:31:23.526Z,103364.28
2023-02-08T17:33:50.233Z,103362.50
2023-02-08T17:36:17.513Z,103361.66
2023-02-08T17:38:46.499Z,103348.53
2023-02-08T17:41:15.545Z,103338.94
2023-02-08T17:43:41.997Z,103347.66
2023-02-08T17:46:13.288Z,103349.41
2023-02-08T17:48:40.004Z,103345.03
2023-02-08T17:51:10.408Z,103348.53
2023-02-08T17:53:40.676Z,103334.56
2023-02-08T17:56:10.170Z,103339.78
2023-02-08T17:58:37.661Z,103335.44
2023-02-08T18:01:04.801Z,103334.56
2023-02-08T18:03:31.523Z,103328.44
2023-02-08T18:06:01.302Z,103325.81
2023-02-08T18:08:28.131Z,103330.19
2023-02-08T18:10:54.660Z,103318.81
2023-02-08T18:13:21.103Z,103319.72
2023-02-08T18:15:48.600Z,103317.94
2023-02-08T18:18:15.592Z,103313.59
2023-02-08T18:20:46.394Z,103318.84
2023-02-08T18:23:13.595Z,103314.47
2023-02-08T18:25:41.468Z,103315.31
2023-02-08T18:30:43.820Z,103313.56
2023-02-08T18:33:10.762Z,103312.72
2023-02-08T18:35:37.805Z,103304.84
2023-02-08T18:38:04.531Z,103303.97
2023-02-08T18:40:32.271Z,103294.38
2023-02-08T18:42:58.855Z,103291.75
2023-02-08T18:45:25.410Z,103300.47
2023-02-08T18:47:51.929Z,103289.13
2023-02-08T18:50:18.527Z,103285.66
2023-02-08T18:52:44.960Z,103281.25
2023-02-08T18:55:11.419Z,103280.38
2023-02-08T18:57:39.884Z,103278.63
2023-02-08T19:00:07.243Z,103272.53
2023-02-08T19:02:33.917Z,103273.41
2023-02-08T19:05:00.348Z,103271.69
2023-02-08T19:07:26.823Z,103268.16
2023-02-08T19:09:54.132Z,103265.56
2023-02-08T19:12:21.406Z,103260.31
2023-02-08T19:14:51.029Z,103250.66
2023-02-08T19:17:18.089Z,103253.31
2023-02-08T19:19:44.890Z,103255.91
2023-02-08T19:22:11.686Z,103253.28
2023-02-08T19:24:39.045Z,103245.41
2023-02-08T19:27:05.672Z,103241.91
2023-02-08T19:29:34.433Z,103235.78
2023-02-08T19:32:01.620Z,103233.19
2023-02-08T19:34:28.192Z,103240.13
2023-02-08T19:36:55.278Z,103236.63
2023-02-08T19:39:25.095Z,103237.47
2023-02-08T19:41:52.832Z,103228.75
2023-02-08T19:44:20.413Z,103224.41
2023-02-08T19:46:56.892Z,103222.69
2023-02-08T19:49:25.669Z,103225.28
2023-02-08T19:51:52.374Z,103220.91
2023-02-08T19:54:19.543Z,103218.25
2023-02-08T19:56:46.872Z,103213.91
2023-02-08T19:59:23.140Z,103207.81
2023-02-08T20:01:50.317Z,103194.69
2023-02-08T20:04:16.886Z,103200.84
2023-02-08T20:06:45.181Z,103192.97
2023-02-08T20:09:15.116Z,103199.09
2023-02-08T20:11:55.883Z,103199.09
2023-02-08T20:14:23.724Z,103204.34
2023-02-08T20:16:50.274Z,103194.75
2023-02-08T20:19:16.740Z,103193.84
2023-02-08T20:21:45.240Z,103204.31
2023-02-08T20:24:11.952Z,103199.09
2023-02-08T20:26:41.272Z,103199.91
2023-02-08T20:29:09.017Z,103202.53
2023-02-08T20:31:37.975Z,103194.69
2023-02-08T20:34:07.162Z,103201.69
2023-02-08T20:36:47.710Z,103194.69
2023-02-08T20:39:19.434Z,103190.31
2023-02-08T20:41:47.406Z,103185.97
2023-02-08T20:44:16.849Z,103194.69
2023-02-08T20:46:44.402Z,103188.59
2023-02-08T20:49:13.959Z,103193.78
2023-02-08T20:51:40.573Z,103195.53
2023-02-08T20:54:07.039Z,103186.81
2023-02-08T20:56:35.777Z,103176.31
2023-02-08T20:59:07.227Z,103178.03
2023-02-08T21:01:35.076Z,103163.25
2023-02-08T21:04:02.508Z,103164.97
2023-02-08T21:06:34.798Z,103159.69
2023-02-08T21:09:13.357Z,103164.06
2023-02-08T21:11:40.252Z,103168.38
2023-02-08T21:14:07.668Z,103168.38
2023-02-08T21:16:34.331Z,103162.34
2023-02-08T21:19:00.834Z,103157.97
2023-02-08T21:21:28.095Z,103161.44
2023-02-08T21:23:56.764Z,103163.19
2023-02-08T21:26:24.309Z,103151.00
2023-02-08T21:28:56.221Z,103147.50
2023-02-08T21:31:25.157Z,103148.34
2023-02-08T21:33:52.574Z,103149.25
2023-02-08T21:36:23.661Z,103137.03
2023-02-08T21:38:50.416Z,103142.25
2023-02-08T21:41:22.841Z,103138.78
2023-02-08T21:43:51.049Z,103134.41
2023-02-08T21:46:17.857Z,103130.06
2023-02-08T21:49:03.367Z,103130.91
2023-02-08T21:51:48.056Z,103124.81
2023-02-08T21:54:36.026Z,103119.56
2023-02-08T21:57:04.380Z,103111.69
2023-02-08T21:59:37.110Z,103105.63
2023-02-08T22:02:08.330Z,103110.84
2023-02-08T22:04:36.694Z,103104.72
2023-02-08T22:07:07.025Z,103098.59
2023-02-08T22:09:35.883Z,103106.41
2023-02-08T22:12:02.525Z,103100.31
2023-02-08T22:14:29.040Z,103091.63
2023-02-08T22:16:55.501Z,103088.13
2023-02-08T22:19:22.042Z,103085.50
2023-02-08T22:21:48.471Z,103084.63
2023-02-08T22:24:14.969Z,103088.94
2023-02-08T22:26:41.537Z,103088.13
2023-02-08T22:29:08.000Z,103082.88
2023-02-08T22:31:34.583Z,103090.75
2023-02-08T22:34:01.165Z,103091.53
2023-02-08T22:36:27.638Z,103094.13
2023-02-08T22:38:54.235Z,103089.84
2023-02-08T22:41:20.898Z,103087.16
2023-02-08T22:43:48.461Z,103075.00
2023-02-08T22:46:15.180Z,103081.91
2023-02-08T22:48:42.225Z,103071.50
2023-02-08T22:51:11.312Z,103072.34
2023-02-08T22:53:38.162Z,103068.88
2023-02-08T22:56:06.185Z,103065.41
2023-02-08T22:58:32.836Z,103066.28
2023-02-08T23:00:59.660Z,103054.06
2023-02-08T23:03:26.251Z,103057.53
2023-02-08T23:05:53.377Z,103053.16
2023-02-08T23:08:21.429Z,103047.94
2023-02-08T23:10:48.217Z,103049.72
2023-02-08T23:13:14.709Z,103051.41
2023-02-08T23:15:43.846Z,103054.00
2023-02-08T23:18:10.787Z,103051.38
2023-02-08T23:20:39.351Z,103053.97
2023-02-08T23:23:05.855Z,103051.38
2023-02-08T23:25:32.991Z,103048.75
2023-02-08T23:27:59.527Z,103055.72
2023-02-08T23:30:26.083Z,103051.38
2023-02-08T23:32:52.608Z,103051.34
2023-02-08T23:35:19.062Z,103053.06
2023-02-08T23:37:45.631Z,103051.34
2023-02-08T23:40:12.357Z,103041.75
2023-02-08T23:42:38.966Z,103035.66
2023-02-08T23:45:06.281Z,103029.56
2023-02-08T23:47:33.071Z,103031.31
2023-02-08T23:49:59.687Z,103028.75
2023-02-08T23:52:26.315Z,103029.56
2023-02-08T23:54:52.830Z,103029.59
2023-02-08T23:57:19.525Z,103033.09
2023-02-08T23:59:46.045Z,103033.97
